Petersburg, KY

6:52 PM EST on January 29, 2015 (GMT -0500)
Cincinnati Municipal-Lunken | Change Station
CLOSE
Current Station
Airport
Location: Cincinnati,
Elevation: 482 ft
Nearby Weather Stations

Elev 482 ft 39.10 °N, 84.42 °W | Updated 59 minutes ago

Overcast
Overcast
36 °F
Feels Like 26 °F
N
16
Wind Variable Wind from West

Today
High -- | Low -- °F
--% Chance of Precip.
Yesterday
High -- | Low -- °F
Precip. -- in
7:48 AM 5:56 PM
Waxing Gibbous, 78% visible
Pressure 30.08 in
Visibility 10.0 miles
Clouds Mostly Cloudy 1800 ft
Overcast 2600 ft
Windchill 26 °F
Dew Point 31 °F
Humidity 82%
Rainfall 0.08 in
Snow Depth Not available.
UV 0 out of 12
Pollen .10 out of 12
Air Quality Not available.
Flu Activity Not available.
METAR KLUK 292253Z 27014KT 10SM BKN018 OVC026 02/M01 A3007 RMK AO2 PK WND 27028/2219 RAB32E42 SLP185 P0000 T00221006

More Conditions Fewer Conditions

Pressure 30.08 in
Visibility 10.0 miles
Clouds Mostly Cloudy 1800 ft
Overcast 2600 ft
Windchill 26 °F
Dew Point 31 °F
Humidity 82%
Rainfall 0.08 in
Snow Depth Not available.
UV 0 out of 12
Pollen .10 out of 12
Air Quality Not available.
Flu Activity Not available.
METAR KLUK 292253Z 27014KT 10SM BKN018 OVC026 02/M01 A3007 RMK AO2 PK WND 27028/2219 RAB32E42 SLP185 P0000 T00221006

More Conditions Fewer Conditions

10-Day Weather Forecast

Almanac

Astronomy

Jan. 29, 2015 Rise Set
Actual Time
Civil Twilight
Nautical Twilight
Astronomical Twilight
Moon
Length of Visible Light
Length of Day
Tomorrow will be .
, % of the Moon is Illuminated

Today's Extremes

State Highs State Lows

Community

WunderPhotos

Upload Photos

1,791,643 photos uploaded!

WunderBlogs® & News

Nearby

Air Quality

  Air Quality AQ Index Pollutant
Not available.

Snow Depth

Station Depth Elevation

Earthquake Activity

City Distance Mag. Time & Date
Minimum magnitude displayed is 2.5.

Coastal Water Temperatures

Place Temperature

Nearby Weather Stations